Time;durP1;ratioP1;P1;durP2;ratioP2;P2;SDS_P1;SDS_P2;PMS_P1;PMS_P2;Temp;Humidity;BMP_temperature;BMP_pressure;BME280_temperature;BME280_humidity;BME280_pressure;Samples;Min_cycle;Max_cycle;Signal;HPM_P1;HPM_P2
2023/06/30 00:00:12;;;;;;;;;3.67;2.33;;;;;;;;5081218;28;45273;-77
2023/06/30 00:02:38;;;;;;;;;2.00;2.00;;;;;;;;5063013;28;45406;-79
2023/06/30 00:05:04;;;;;;;;;2.00;2.00;;;;;;;;5081018;28;45296;-78
2023/06/30 00:07:29;;;;;;;;;3.67;3.33;;;;;;;;5080774;28;45237;-77
2023/06/30 00:09:55;;;;;;;;;4.00;4.00;;;;;;;;5081067;28;45283;-78
2023/06/30 00:12:20;;;;;;;;;5.33;4.00;;;;;;;;5081166;28;45557;-78
2023/06/30 00:14:45;;;;;;;;;5.33;3.33;;;;;;;;5080927;28;45367;-77
2023/06/30 00:17:10;;;;;;;;;2.00;2.00;;;;;;;;5062606;28;47384;-78
2023/06/30 00:19:35;;;;;;;;;3.00;3.00;;;;;;;;5081236;28;45130;-77
2023/06/30 00:22:01;;;;;;;;;3.67;3.67;;;;;;;;5080997;28;45190;-78
2023/06/30 00:24:27;;;;;;;;;2.00;2.00;;;;;;;;5080867;28;45594;-77
2023/06/30 00:26:52;;;;;;;;;2.00;2.00;;;;;;;;5062314;28;48060;-78
2023/06/30 00:29:17;;;;;;;;;2.00;2.00;;;;;;;;5089595;27;45341;-77
2023/06/30 00:31:42;;;;;;;;;2.00;2.00;;;;;;;;5082900;27;45156;-77
2023/06/30 00:34:07;;;;;;;;;1.67;1.67;;;;;;;;5101248;27;45386;-78
2023/06/30 00:36:33;;;;;;;;;2.67;1.67;;;;;;;;5101631;27;46249;-78
2023/06/30 00:38:58;;;;;;;;;2.00;2.00;;;;;;;;5082615;27;45599;-78
2023/06/30 00:41:24;;;;;;;;;1.00;1.00;;;;;;;;5082733;27;45394;-78
2023/06/30 00:43:49;;;;;;;;;1.00;1.00;;;;;;;;5082589;27;46113;-78
2023/06/30 00:46:16;;;;;;;;;4.00;4.00;;;;;;;;5087095;27;45983;-78
2023/06/30 00:48:41;;;;;;;;;2.67;2.67;;;;;;;;5081102;28;45404;-78
2023/06/30 00:51:11;;;;;;;;;3.00;3.00;;;;;;;;5062759;28;45323;-79
2023/06/30 00:53:39;;;;;;;;;3.33;3.33;;;;;;;;5080628;28;45244;-77
2023/06/30 00:56:04;;;;;;;;;1.33;1.33;;;;;;;;5062143;28;47388;-78
2023/06/30 00:58:29;;;;;;;;;3.00;3.00;;;;;;;;5080772;28;45410;-78
2023/06/30 01:01:01;;;;;;;;;3.00;2.00;;;;;;;;5062196;28;45386;-79
2023/06/30 01:03:26;;;;;;;;;2.00;2.00;;;;;;;;5080250;28;45422;-76
2023/06/30 01:05:55;;;;;;;;;2.67;1.00;;;;;;;;5061968;28;46822;-77
2023/06/30 01:08:29;;;;;;;;;3.00;3.00;;;;;;;;5079410;28;45346;-77
2023/06/30 01:10:55;;;;;;;;;4.00;4.00;;;;;;;;5079512;28;45481;-77
2023/06/30 01:13:21;;;;;;;;;3.67;3.67;;;;;;;;5061899;28;47025;-78
2023/06/30 01:15:47;;;;;;;;;7.00;6.67;;;;;;;;5061548;28;47885;-78
2023/06/30 01:18:13;;;;;;;;;5.00;5.00;;;;;;;;5080148;28;45330;-77
2023/06/30 01:20:40;;;;;;;;;11.33;11.33;;;;;;;;5080207;28;45344;-78
2023/06/30 01:23:17;;;;;;;;;8.00;8.00;;;;;;;;5080174;28;45528;-77
2023/06/30 01:25:42;;;;;;;;;8.00;8.00;;;;;;;;5079805;28;46545;-77
2023/06/30 01:28:09;;;;;;;;;8.67;8.67;;;;;;;;5061711;28;46079;-79
2023/06/30 01:30:36;;;;;;;;;7.33;7.33;;;;;;;;5080812;27;45576;-78
2023/06/30 01:33:01;;;;;;;;;7.67;7.67;;;;;;;;5081930;27;47317;-77
2023/06/30 01:35:27;;;;;;;;;9.67;9.67;;;;;;;;5100178;27;45290;-79
2023/06/30 01:37:53;;;;;;;;;9.67;8.67;;;;;;;;5100351;27;45432;-78
2023/06/30 01:40:18;;;;;;;;;11.00;11.00;;;;;;;;5082119;27;45284;-77
2023/06/30 01:42:44;;;;;;;;;11.00;9.00;;;;;;;;5100462;27;45345;-79
2023/06/30 01:45:11;;;;;;;;;9.00;9.00;;;;;;;;5099971;27;45239;-78
2023/06/30 01:47:36;;;;;;;;;10.00;9.00;;;;;;;;5100466;27;45201;-77
2023/06/30 01:50:02;;;;;;;;;10.67;8.67;;;;;;;;5100218;27;45388;-77
2023/06/30 01:52:27;;;;;;;;;11.33;11.33;;;;;;;;5099857;27;45282;-78
2023/06/30 01:54:52;;;;;;;;;11.33;10.00;;;;;;;;5081732;27;47014;-78
2023/06/30 01:57:17;;;;;;;;;10.33;10.33;;;;;;;;5081943;27;45228;-77
2023/06/30 01:59:43;;;;;;;;;12.00;12.00;;;;;;;;5100011;27;45220;-78
2023/06/30 02:02:08;;;;;;;;;14.67;12.00;;;;;;;;5082079;27;47141;-77
2023/06/30 02:04:33;;;;;;;;;13.67;13.67;;;;;;;;5100073;27;45336;-78
2023/06/30 02:06:58;;;;;;;;;11.00;11.00;;;;;;;;5100001;27;45318;-77
2023/06/30 02:09:24;;;;;;;;;12.00;12.00;;;;;;;;5100675;27;45291;-76
2023/06/30 02:11:49;;;;;;;;;10.67;9.67;;;;;;;;5100214;27;45576;-77
2023/06/30 02:14:14;;;;;;;;;8.33;8.33;;;;;;;;5100240;27;45418;-77
2023/06/30 02:16:39;;;;;;;;;11.00;11.00;;;;;;;;5100159;27;45389;-77
2023/06/30 02:19:04;;;;;;;;;11.00;8.00;;;;;;;;5100652;27;45302;-77
2023/06/30 02:21:30;;;;;;;;;8.33;7.67;;;;;;;;5102438;27;45457;-77
2023/06/30 02:23:55;;;;;;;;;8.33;8.00;;;;;;;;5103504;27;45517;-77
2023/06/30 02:26:20;;;;;;;;;7.67;7.67;;;;;;;;5103581;27;45354;-78
2023/06/30 02:28:45;;;;;;;;;6.33;6.33;;;;;;;;5099556;27;45361;-78
2023/06/30 02:31:10;;;;;;;;;6.00;5.00;;;;;;;;5082815;28;45349;-77
2023/06/30 02:33:36;;;;;;;;;5.00;5.00;;;;;;;;5082660;28;45494;-77
2023/06/30 02:36:03;;;;;;;;;6.00;5.67;;;;;;;;5082430;28;45418;-76
2023/06/30 02:38:28;;;;;;;;;5.33;5.00;;;;;;;;5064426;28;45441;-78
2023/06/30 02:40:53;;;;;;;;;6.33;6.33;;;;;;;;5083149;28;45345;-78
2023/06/30 02:43:18;;;;;;;;;5.67;4.67;;;;;;;;5082438;28;46177;-78
2023/06/30 02:45:44;;;;;;;;;5.00;5.00;;;;;;;;5082398;28;45309;-79
2023/06/30 02:48:09;;;;;;;;;7.33;7.33;;;;;;;;5064352;28;45248;-77
2023/06/30 02:50:34;;;;;;;;;7.00;6.00;;;;;;;;5082569;28;45353;-77
2023/06/30 02:52:59;;;;;;;;;8.67;7.00;;;;;;;;5063949;28;46887;-77
2023/06/30 02:55:25;;;;;;;;;7.00;6.00;;;;;;;;5082269;28;45215;-77
2023/06/30 02:57:50;;;;;;;;;5.00;5.00;;;;;;;;5063875;28;45366;-79
2023/06/30 03:00:15;;;;;;;;;5.00;5.00;;;;;;;;5063845;28;47536;-77
2023/06/30 03:02:41;;;;;;;;;6.33;6.33;;;;;;;;5081958;28;45624;-77
2023/06/30 03:05:07;;;;;;;;;5.00;5.00;;;;;;;;5081984;28;45235;-77
2023/06/30 03:07:32;;;;;;;;;7.00;6.00;;;;;;;;5063897;28;45492;-77
2023/06/30 03:09:57;;;;;;;;;5.33;5.33;;;;;;;;5082077;28;45390;-77
2023/06/30 03:12:22;;;;;;;;;6.00;6.00;;;;;;;;5081995;28;46081;-77
2023/06/30 03:14:47;;;;;;;;;5.67;5.67;;;;;;;;5081720;28;45279;-77
2023/06/30 03:17:13;;;;;;;;;5.67;5.67;;;;;;;;5082128;28;45318;-77
2023/06/30 03:19:41;;;;;;;;;4.33;4.33;;;;;;;;5081768;28;45367;-77
2023/06/30 03:22:06;;;;;;;;;5.33;5.33;;;;;;;;5081859;28;45463;-77
2023/06/30 03:24:31;;;;;;;;;4.00;4.00;;;;;;;;5063639;28;45269;-76
2023/06/30 03:26:56;;;;;;;;;4.33;4.00;;;;;;;;5082032;28;45249;-76
2023/06/30 03:29:22;;;;;;;;;5.00;5.00;;;;;;;;5090456;27;45541;-77
2023/06/30 03:31:47;;;;;;;;;4.00;4.00;;;;;;;;5082549;27;47357;-76
2023/06/30 03:34:12;;;;;;;;;4.00;4.00;;;;;;;;5102116;27;45247;-77
2023/06/30 03:36:37;;;;;;;;;4.00;4.00;;;;;;;;5083545;27;45284;-77
2023/06/30 03:39:05;;;;;;;;;3.67;3.67;;;;;;;;5101906;27;45496;-77
2023/06/30 03:41:30;;;;;;;;;5.67;4.33;;;;;;;;5101659;27;46195;-77
2023/06/30 03:43:55;;;;;;;;;3.33;3.33;;;;;;;;5101473;27;45231;-77
2023/06/30 03:46:20;;;;;;;;;2.67;2.67;;;;;;;;5083407;27;45298;-77
2023/06/30 03:48:45;;;;;;;;;5.67;4.33;;;;;;;;5083290;27;46842;-76
2023/06/30 03:51:10;;;;;;;;;2.67;2.00;;;;;;;;5101470;27;45424;-77
2023/06/30 03:53:36;;;;;;;;;3.00;3.00;;;;;;;;5083278;27;45924;-77
2023/06/30 03:56:01;;;;;;;;;4.33;4.00;;;;;;;;5083257;27;45622;-76
2023/06/30 03:58:27;;;;;;;;;3.33;2.67;;;;;;;;5101549;27;45504;-77
2023/06/30 04:00:52;;;;;;;;;4.00;4.00;;;;;;;;5101369;27;45889;-77
2023/06/30 04:03:17;;;;;;;;;2.67;2.67;;;;;;;;5101419;27;45280;-76
2023/06/30 04:05:43;;;;;;;;;6.00;4.33;;;;;;;;5101543;27;45318;-76
2023/06/30 04:08:08;;;;;;;;;4.00;3.67;;;;;;;;5083024;27;46905;-77
2023/06/30 04:10:33;;;;;;;;;3.33;3.33;;;;;;;;5101337;27;45340;-77
2023/06/30 04:12:58;;;;;;;;;4.33;4.33;;;;;;;;5101403;27;45207;-77
2023/06/30 04:15:23;;;;;;;;;4.00;3.00;;;;;;;;5101207;27;45331;-76
2023/06/30 04:17:49;;;;;;;;;4.00;4.00;;;;;;;;5082841;27;47188;-76
2023/06/30 04:20:15;;;;;;;;;4.00;3.67;;;;;;;;5101096;27;45287;-77
2023/06/30 04:22:41;;;;;;;;;3.33;3.33;;;;;;;;5101138;27;45337;-77
2023/06/30 04:25:06;;;;;;;;;4.00;4.00;;;;;;;;5101303;27;45316;-76
2023/06/30 04:27:32;;;;;;;;;5.00;5.00;;;;;;;;5082803;27;45980;-77
2023/06/30 04:29:57;;;;;;;;;4.33;4.33;;;;;;;;5068163;28;48534;-76
2023/06/30 04:32:22;;;;;;;;;3.67;3.67;;;;;;;;5080672;28;45294;-77
2023/06/30 04:34:47;;;;;;;;;6.00;4.00;;;;;;;;5080723;28;45465;-76
2023/06/30 04:37:13;;;;;;;;;4.67;4.67;;;;;;;;5062260;28;47523;-77
2023/06/30 04:39:38;;;;;;;;;5.00;4.00;;;;;;;;5080440;28;45377;-76
2023/06/30 04:42:04;;;;;;;;;5.67;5.67;;;;;;;;5080151;28;45284;-77
2023/06/30 04:44:29;;;;;;;;;4.00;4.00;;;;;;;;5061869;28;45276;-76
2023/06/30 04:46:55;;;;;;;;;5.00;5.00;;;;;;;;5080317;28;46572;-77
2023/06/30 04:49:20;;;;;;;;;6.67;5.33;;;;;;;;5061994;28;47320;-77
2023/06/30 04:51:45;;;;;;;;;4.67;4.67;;;;;;;;5080210;28;45243;-76
2023/06/30 04:54:11;;;;;;;;;5.00;5.00;;;;;;;;5080359;28;45494;-76
2023/06/30 04:56:36;;;;;;;;;4.33;4.33;;;;;;;;5080336;28;45422;-77
2023/06/30 04:59:01;;;;;;;;;5.33;5.33;;;;;;;;5080327;28;45280;-76
2023/06/30 05:01:26;;;;;;;;;6.00;6.00;;;;;;;;5079785;28;45454;-77
2023/06/30 05:03:51;;;;;;;;;5.00;5.00;;;;;;;;5061469;28;45273;-76
2023/06/30 05:06:17;;;;;;;;;6.33;6.00;;;;;;;;5079994;28;45240;-77
2023/06/30 05:08:42;;;;;;;;;5.00;5.00;;;;;;;;5077334;27;45413;-78
2023/06/30 05:11:07;;;;;;;;;4.67;4.67;;;;;;;;5069499;28;46760;-76
2023/06/30 05:13:32;;;;;;;;;5.00;4.67;;;;;;;;5060138;28;45264;-77
2023/06/30 05:15:57;;;;;;;;;5.33;5.33;;;;;;;;5059537;28;45307;-77
2023/06/30 05:18:22;;;;;;;;;4.00;3.33;;;;;;;;5059603;28;46275;-75
2023/06/30 05:20:48;;;;;;;;;3.00;3.00;;;;;;;;5041430;28;45309;-76
2023/06/30 05:23:13;;;;;;;;;3.67;3.67;;;;;;;;5041372;28;45473;-76
2023/06/30 05:25:38;;;;;;;;;4.00;2.67;;;;;;;;5058915;28;45644;-76
2023/06/30 05:28:03;;;;;;;;;5.67;4.00;;;;;;;;5058997;28;45532;-77
2023/06/30 05:30:29;;;;;;;;;4.00;4.00;;;;;;;;5080766;27;45183;-76
2023/06/30 05:32:54;;;;;;;;;5.67;4.67;;;;;;;;5079692;28;45353;-76
2023/06/30 05:35:19;;;;;;;;;6.00;5.00;;;;;;;;5079545;28;45256;-77
2023/06/30 05:37:44;;;;;;;;;6.00;6.00;;;;;;;;5079653;28;46028;-76
2023/06/30 05:40:10;;;;;;;;;5.00;4.33;;;;;;;;5079556;28;45334;-75
2023/06/30 05:42:35;;;;;;;;;5.00;5.00;;;;;;;;5079515;28;45761;-75
2023/06/30 05:45:00;;;;;;;;;4.00;4.00;;;;;;;;5060886;28;46043;-75
2023/06/30 05:47:25;;;;;;;;;3.00;3.00;;;;;;;;5061212;28;46963;-75
2023/06/30 05:49:51;;;;;;;;;4.33;4.33;;;;;;;;5061154;28;45335;-75
2023/06/30 05:52:16;;;;;;;;;3.00;3.00;;;;;;;;5078868;27;45353;-75
2023/06/30 05:54:41;;;;;;;;;6.33;4.00;;;;;;;;5074855;28;45488;-76
2023/06/30 05:57:06;;;;;;;;;4.00;4.00;;;;;;;;5077307;28;46208;-75
2023/06/30 05:59:32;;;;;;;;;4.33;3.00;;;;;;;;5064025;28;45351;-77
2023/06/30 06:01:57;;;;;;;;;3.00;3.00;;;;;;;;5083082;28;45360;-75
2023/06/30 06:04:22;;;;;;;;;3.67;3.00;;;;;;;;5082838;28;45492;-74
2023/06/30 06:06:47;;;;;;;;;5.00;3.00;;;;;;;;5063510;28;45683;-76
2023/06/30 06:09:13;;;;;;;;;2.50;2.00;;;;;;;;5082787;28;45374;-76
2023/06/30 06:11:39;;;;;;;;;3.00;3.00;;;;;;;;5082362;28;45237;-76
2023/06/30 06:14:04;;;;;;;;;2.00;2.00;;;;;;;;5070633;28;45388;-76
2023/06/30 06:16:29;;;;;;;;;4.00;3.00;;;;;;;;5043631;28;47123;-75
2023/06/30 06:18:54;;;;;;;;;3.00;3.00;;;;;;;;5062100;28;45845;-75
2023/06/30 06:21:20;;;;;;;;;3.00;2.00;;;;;;;;5079734;28;45302;-76
2023/06/30 06:23:45;;;;;;;;;4.67;3.00;;;;;;;;5063628;28;46296;-75
2023/06/30 06:26:10;;;;;;;;;2.33;2.00;;;;;;;;5081831;28;45416;-74
2023/06/30 06:28:35;;;;;;;;;1.33;1.33;;;;;;;;5084557;27;45501;-76
2023/06/30 06:31:00;;;;;;;;;4.00;4.00;;;;;;;;5079141;28;45572;-75
2023/06/30 06:33:26;;;;;;;;;2.33;2.00;;;;;;;;5083428;28;45441;-75
2023/06/30 06:35:51;;;;;;;;;2.67;2.67;;;;;;;;5064004;28;46149;-75
2023/06/30 06:38:17;;;;;;;;;3.00;3.00;;;;;;;;5064212;28;45527;-75
2023/06/30 06:40:43;;;;;;;;;2.33;2.33;;;;;;;;5082784;28;45333;-76
2023/06/30 06:43:08;;;;;;;;;4.00;3.00;;;;;;;;5050244;28;45418;-74
2023/06/30 06:45:34;;;;;;;;;1.00;1.00;;;;;;;;5040115;28;46299;-74
2023/06/30 06:48:20;;;;;;;;;4.00;3.00;;;;;;;;5041943;28;45245;-74
2023/06/30 06:50:47;;;;;;;;;2.00;2.00;;;;;;;;5040414;28;45295;-75
2023/06/30 06:53:19;;;;;;;;;3.00;3.00;;;;;;;;5039976;28;45470;-74
2023/06/30 06:55:50;;;;;;;;;3.00;3.00;;;;;;;;5039011;28;47331;-73
2023/06/30 06:58:15;;;;;;;;;3.00;3.00;;;;;;;;5035984;28;45284;-74
2023/06/30 07:00:41;;;;;;;;;2.00;2.00;;;;;;;;5040328;28;45319;-74
2023/06/30 07:03:07;;;;;;;;;1.00;1.00;;;;;;;;5039887;28;45366;-74
2023/06/30 07:05:32;;;;;;;;;3.00;3.00;;;;;;;;5039966;28;46368;-75
2023/06/30 07:07:58;;;;;;;;;3.00;2.00;;;;;;;;5038637;28;45390;-74
2023/06/30 07:10:23;;;;;;;;;2.00;2.00;;;;;;;;5040068;28;45389;-74
2023/06/30 07:12:49;;;;;;;;;3.00;2.00;;;;;;;;5039761;28;45289;-74
2023/06/30 07:15:14;;;;;;;;;1.00;1.00;;;;;;;;5039988;28;48250;-75
2023/06/30 07:17:39;;;;;;;;;2.33;2.33;;;;;;;;5039876;28;45478;-75
2023/06/30 07:20:05;;;;;;;;;1.00;1.00;;;;;;;;5039965;28;45545;-75
2023/06/30 07:22:30;;;;;;;;;4.00;4.00;;;;;;;;5041124;28;45340;-74
2023/06/30 07:24:55;;;;;;;;;1.33;1.00;;;;;;;;5041147;28;45255;-74
2023/06/30 07:27:21;;;;;;;;;2.67;2.67;;;;;;;;5041299;28;45438;-74
2023/06/30 07:29:49;;;;;;;;;2.00;2.00;;;;;;;;5040849;28;45566;-74
2023/06/30 07:32:14;;;;;;;;;2.00;2.00;;;;;;;;5039845;28;46087;-75
2023/06/30 07:34:39;;;;;;;;;2.00;2.00;;;;;;;;5040889;28;46176;-75
2023/06/30 07:37:05;;;;;;;;;3.33;2.33;;;;;;;;5040848;28;45332;-74
2023/06/30 07:39:30;;;;;;;;;0.00;0.00;;;;;;;;5041232;28;45215;-74
2023/06/30 07:41:55;;;;;;;;;1.33;1.33;;;;;;;;5041015;28;45347;-74
2023/06/30 07:44:20;;;;;;;;;1.00;1.00;;;;;;;;5059018;28;47527;-74
2023/06/30 07:46:46;;;;;;;;;1.67;1.00;;;;;;;;5060917;28;45260;-74
2023/06/30 07:49:11;;;;;;;;;0.00;0.00;;;;;;;;5061103;28;45264;-74
2023/06/30 07:51:36;;;;;;;;;2.67;2.00;;;;;;;;5060813;28;45384;-74
2023/06/30 07:54:01;;;;;;;;;2.67;2.00;;;;;;;;5059615;28;48525;-74
2023/06/30 07:56:26;;;;;;;;;2.33;2.00;;;;;;;;5060879;28;45268;-73
2023/06/30 07:58:52;;;;;;;;;2.00;2.00;;;;;;;;5061078;28;45345;-72
2023/06/30 08:01:17;;;;;;;;;1.67;1.67;;;;;;;;5060556;28;45592;-72
2023/06/30 08:03:42;;;;;;;;;2.00;2.00;;;;;;;;5060314;28;45166;-73
2023/06/30 08:06:07;;;;;;;;;1.00;1.00;;;;;;;;5048707;28;45343;-73
2023/06/30 08:08:32;;;;;;;;;2.00;2.00;;;;;;;;5040701;28;45282;-72
2023/06/30 08:10:58;;;;;;;;;2.33;2.00;;;;;;;;5038434;28;46193;-72
2023/06/30 08:13:23;;;;;;;;;2.00;2.00;;;;;;;;5037512;28;45537;-72
2023/06/30 08:15:49;;;;;;;;;3.00;3.00;;;;;;;;5038852;28;45969;-73
2023/06/30 08:18:15;;;;;;;;;4.00;4.00;;;;;;;;5038417;28;45356;-72
2023/06/30 08:20:40;;;;;;;;;35.00;30.00;;;;;;;;5038780;28;45696;-72
2023/06/30 08:23:05;;;;;;;;;6.67;6.67;;;;;;;;5039528;28;46446;-73
2023/06/30 08:25:30;;;;;;;;;2.00;2.00;;;;;;;;5039091;28;45324;-72
2023/06/30 08:27:56;;;;;;;;;1.00;1.00;;;;;;;;5040414;28;45274;-72
2023/06/30 08:30:22;;;;;;;;;2.33;2.33;;;;;;;;5055697;28;45382;-73
2023/06/30 08:32:47;;;;;;;;;54.67;42.67;;;;;;;;5059999;28;45345;-72
2023/06/30 08:35:12;;;;;;;;;13.67;12.33;;;;;;;;5059964;28;45331;-72
2023/06/30 08:37:38;;;;;;;;;13.00;10.00;;;;;;;;5060362;28;45473;-73
2023/06/30 08:40:06;;;;;;;;;1.00;1.00;;;;;;;;5059977;28;45264;-73
2023/06/30 08:42:35;;;;;;;;;2.00;2.00;;;;;;;;5063181;28;45562;-73
2023/06/30 08:45:02;;;;;;;;;2.00;2.00;;;;;;;;5078762;28;45461;-73
2023/06/30 08:47:28;;;;;;;;;1.67;1.67;;;;;;;;5079142;28;45299;-74
2023/06/30 08:49:54;;;;;;;;;2.33;2.33;;;;;;;;5076455;27;45468;-72
2023/06/30 08:52:19;;;;;;;;;2.00;2.00;;;;;;;;5057840;28;47431;-72
2023/06/30 08:54:44;;;;;;;;;2.00;2.00;;;;;;;;5058029;28;45370;-73
2023/06/30 08:57:15;;;;;;;;;4.00;1.00;;;;;;;;5058612;28;45291;-72
2023/06/30 08:59:40;;;;;;;;;2.00;2.00;;;;;;;;5059852;28;45377;-73
2023/06/30 09:02:06;;;;;;;;;1.33;1.33;;;;;;;;5058244;28;45410;-73
2023/06/30 09:04:31;;;;;;;;;3.33;3.33;;;;;;;;5058469;28;45355;-72
2023/06/30 09:06:58;;;;;;;;;2.67;2.33;;;;;;;;5058711;28;45328;-73
2023/06/30 09:09:28;;;;;;;;;2.00;2.00;;;;;;;;5057745;28;45434;-73
2023/06/30 09:11:54;;;;;;;;;2.00;1.33;;;;;;;;5058207;28;45958;-74
2023/06/30 09:14:21;;;;;;;;;3.00;3.00;;;;;;;;5057726;28;45335;-74
2023/06/30 09:16:47;;;;;;;;;2.00;2.00;;;;;;;;5058262;28;45329;-74
2023/06/30 09:19:13;;;;;;;;;4.67;3.00;;;;;;;;5059450;28;45313;-73
2023/06/30 09:21:39;;;;;;;;;11.67;11.67;;;;;;;;5057475;28;46639;-73
2023/06/30 09:24:04;;;;;;;;;3.00;3.00;;;;;;;;5058102;28;45357;-73
2023/06/30 09:26:30;;;;;;;;;3.33;3.33;;;;;;;;5058355;28;45296;-73
2023/06/30 09:28:58;;;;;;;;;1.75;1.75;;;;;;;;5064537;28;45325;-73
2023/06/30 09:31:27;;;;;;;;;3.00;3.00;;;;;;;;5080135;28;45765;-74
2023/06/30 09:33:52;;;;;;;;;3.33;3.33;;;;;;;;5081458;28;45319;-74
2023/06/30 09:36:18;;;;;;;;;4.00;4.00;;;;;;;;5083120;28;45312;-73
2023/06/30 09:38:43;;;;;;;;;2.25;1.25;;;;;;;;5082102;27;45297;-73
2023/06/30 09:41:18;;;;;;;;;2.67;2.67;;;;;;;;5082696;28;45455;-74
2023/06/30 09:43:46;;;;;;;;;3.00;3.00;;;;;;;;5098006;27;45428;-74
2023/06/30 09:46:11;;;;;;;;;2.00;2.00;;;;;;;;5103749;27;45171;-74
2023/06/30 09:48:40;;;;;;;;;1.25;1.25;;;;;;;;5084991;27;46959;-74
2023/06/30 09:51:07;;;;;;;;;2.00;2.00;;;;;;;;5084930;27;47927;-74
2023/06/30 09:53:36;;;;;;;;;5.00;2.00;;;;;;;;5103596;27;45330;-75
2023/06/30 09:56:02;;;;;;;;;4.00;4.00;;;;;;;;5103650;27;45325;-74
2023/06/30 09:58:30;;;;;;;;;3.00;3.00;;;;;;;;5103538;27;45470;-74
2023/06/30 10:00:56;;;;;;;;;2.00;2.00;;;;;;;;5084771;27;47058;-75
2023/06/30 10:03:22;;;;;;;;;4.00;4.00;;;;;;;;5103168;27;45396;-74
2023/06/30 10:05:50;;;;;;;;;3.67;3.00;;;;;;;;5084929;27;45375;-75
2023/06/30 10:08:15;;;;;;;;;4.33;4.00;;;;;;;;5084921;27;46876;-75
2023/06/30 10:10:44;;;;;;;;;3.67;3.67;;;;;;;;5084746;27;46649;-75
2023/06/30 10:13:10;;;;;;;;;3.67;2.00;;;;;;;;5084882;27;45269;-75
2023/06/30 10:15:36;;;;;;;;;4.00;4.00;;;;;;;;5084860;27;45366;-75
2023/06/30 10:18:02;;;;;;;;;3.00;3.00;;;;;;;;5102810;27;45471;-75
2023/06/30 10:20:28;;;;;;;;;3.50;2.00;;;;;;;;5084546;27;45336;-74
2023/06/30 10:22:54;;;;;;;;;3.50;2.75;;;;;;;;5084330;27;45356;-75
2023/06/30 10:25:20;;;;;;;;;3.00;3.00;;;;;;;;5084730;27;45394;-75
2023/06/30 10:27:46;;;;;;;;;5.00;5.00;;;;;;;;5102972;27;45375;-75
2023/06/30 10:30:12;;;;;;;;;4.33;4.33;;;;;;;;5067958;28;47070;-74
2023/06/30 10:32:38;;;;;;;;;5.00;5.00;;;;;;;;5082529;28;45325;-74
2023/06/30 10:35:03;;;;;;;;;5.33;5.33;;;;;;;;5064397;28;45309;-74
2023/06/30 10:37:28;;;;;;;;;6.00;6.00;;;;;;;;5082243;28;45558;-74
2023/06/30 10:39:54;;;;;;;;;5.00;4.33;;;;;;;;5064667;28;47158;-75
2023/06/30 10:42:20;;;;;;;;;4.67;4.67;;;;;;;;5064897;28;46170;-76
2023/06/30 10:44:47;;;;;;;;;5.00;5.00;;;;;;;;5082199;28;45433;-75
2023/06/30 10:47:13;;;;;;;;;6.00;5.00;;;;;;;;5079588;28;45331;-76
2023/06/30 10:49:39;;;;;;;;;5.67;5.67;;;;;;;;5085346;28;46093;-76
2023/06/30 10:52:09;;;;;;;;;5.33;5.33;;;;;;;;5088886;28;44762;-75
2023/06/30 10:54:39;;;;;;;;;6.33;6.33;;;;;;;;5083445;28;45338;-76
2023/06/30 10:57:13;;;;;;;;;7.00;7.00;;;;;;;;5081552;28;46334;-75
2023/06/30 10:59:39;;;;;;;;;6.00;6.00;;;;;;;;5063307;28;47727;-75
2023/06/30 11:02:14;;;;;;;;;7.33;6.00;;;;;;;;5063592;28;45334;-74
2023/06/30 11:04:41;;;;;;;;;7.00;6.67;;;;;;;;5082133;28;45461;-73
2023/06/30 11:07:07;;;;;;;;;6.33;6.33;;;;;;;;5062608;28;46974;-74
2023/06/30 11:09:59;;;;;;;;;7.00;7.00;;;;;;;;5080981;28;45280;-74
2023/06/30 11:12:25;;;;;;;;;6.33;6.33;;;;;;;;5074873;28;45402;-74
2023/06/30 11:14:55;;;;;;;;;3.33;3.33;;;;;;;;5062313;28;45478;-74
2023/06/30 11:17:21;;;;;;;;;6.00;5.33;;;;;;;;5063500;28;47038;-74
2023/06/30 11:20:01;;;;;;;;;5.00;5.00;;;;;;;;5063228;28;46809;-74
2023/06/30 11:22:30;;;;;;;;;5.33;5.33;;;;;;;;5081422;28;45317;-74
2023/06/30 11:24:55;;;;;;;;;6.33;6.00;;;;;;;;5057950;28;45719;-75
2023/06/30 11:27:21;;;;;;;;;4.67;4.67;;;;;;;;5060532;28;45865;-75
2023/06/30 11:29:47;;;;;;;;;5.00;5.00;;;;;;;;5080625;27;46183;-75
2023/06/30 11:32:15;;;;;;;;;6.00;6.00;;;;;;;;5080221;28;45345;-76
2023/06/30 11:34:41;;;;;;;;;5.00;5.00;;;;;;;;5079217;27;45362;-75
2023/06/30 11:37:06;;;;;;;;;6.00;6.00;;;;;;;;5081113;28;45614;-74
2023/06/30 11:39:31;;;;;;;;;5.67;5.67;;;;;;;;5080255;27;46470;-75
2023/06/30 11:41:56;;;;;;;;;0.33;0.33;;;;;;;;5080493;28;45351;-75
2023/06/30 11:44:22;;;;;;;;;5.00;5.00;;;;;;;;5061671;28;45415;-75
2023/06/30 11:46:47;;;;;;;;;6.00;6.00;;;;;;;;5079537;28;45266;-75
2023/06/30 11:49:12;;;;;;;;;4.00;4.00;;;;;;;;5062662;28;47218;-74
2023/06/30 11:51:37;;;;;;;;;5.00;5.00;;;;;;;;5081180;28;45267;-75
2023/06/30 11:54:02;;;;;;;;;4.00;4.00;;;;;;;;5080684;28;45350;-75
2023/06/30 11:56:29;;;;;;;;;5.00;5.00;;;;;;;;5082506;28;45612;-75
2023/06/30 11:58:54;;;;;;;;;5.67;5.67;;;;;;;;5081955;28;45957;-75
2023/06/30 12:01:19;;;;;;;;;7.00;7.00;;;;;;;;5078795;28;45464;-75
2023/06/30 12:03:45;;;;;;;;;6.67;6.67;;;;;;;;5081330;28;45497;-74
2023/06/30 12:06:10;;;;;;;;;6.75;6.75;;;;;;;;5081085;28;45902;-74
2023/06/30 12:08:38;;;;;;;;;5.33;5.33;;;;;;;;5080960;28;46169;-74
2023/06/30 12:11:03;;;;;;;;;6.67;6.33;;;;;;;;5062871;28;45330;-74
2023/06/30 12:13:29;;;;;;;;;8.00;6.67;;;;;;;;5080987;28;45538;-74
2023/06/30 12:15:57;;;;;;;;;6.00;5.00;;;;;;;;5062262;28;45935;-73
2023/06/30 12:18:38;;;;;;;;;8.00;8.00;;;;;;;;5061683;28;47180;-73
2023/06/30 12:21:10;;;;;;;;;5.00;5.00;;;;;;;;5080111;28;45341;-74
2023/06/30 12:23:39;;;;;;;;;9.00;8.00;;;;;;;;5080772;28;45548;-74
2023/06/30 12:26:05;;;;;;;;;7.67;7.00;;;;;;;;5062342;28;46225;-75
2023/06/30 12:28:30;;;;;;;;;7.00;6.25;;;;;;;;5064273;27;48587;-74
2023/06/30 12:30:55;;;;;;;;;4.00;4.00;;;;;;;;5101050;27;45381;-74
2023/06/30 12:33:22;;;;;;;;;8.25;7.25;;;;;;;;5101145;27;45159;-75
2023/06/30 12:35:49;;;;;;;;;6.00;6.00;;;;;;;;5100890;27;45268;-74
2023/06/30 12:38:14;;;;;;;;;6.33;6.33;;;;;;;;5100976;27;45475;-74
2023/06/30 12:40:39;;;;;;;;;6.00;6.00;;;;;;;;5100609;27;45412;-74
2023/06/30 12:43:04;;;;;;;;;5.00;5.00;;;;;;;;5100780;27;45326;-74
2023/06/30 12:45:30;;;;;;;;;5.75;5.75;;;;;;;;5100692;27;45496;-74
2023/06/30 12:47:55;;;;;;;;;5.00;5.00;;;;;;;;5100813;27;45408;-73
2023/06/30 12:50:20;;;;;;;;;5.25;5.00;;;;;;;;5079585;27;45342;-75
2023/06/30 12:52:46;;;;;;;;;5.00;5.00;;;;;;;;5061724;28;45323;-76
2023/06/30 12:55:12;;;;;;;;;5.00;5.00;;;;;;;;5080753;28;45354;-75
2023/06/30 12:57:37;;;;;;;;;6.00;6.00;;;;;;;;5063918;28;46822;-74
2023/06/30 13:00:06;;;;;;;;;4.75;4.75;;;;;;;;5082439;28;45244;-75
2023/06/30 13:02:31;;;;;;;;;5.50;5.50;;;;;;;;5080281;28;45373;-74
2023/06/30 13:04:56;;;;;;;;;5.00;5.00;;;;;;;;5080324;28;45314;-75
2023/06/30 13:07:21;;;;;;;;;5.50;5.50;;;;;;;;5063616;28;46991;-75
2023/06/30 13:09:47;;;;;;;;;5.50;5.50;;;;;;;;5081324;28;45445;-75
2023/06/30 13:12:12;;;;;;;;;6.00;6.00;;;;;;;;5083564;28;45331;-75
2023/06/30 13:14:38;;;;;;;;;4.50;4.50;;;;;;;;5080691;28;45429;-74
2023/06/30 13:17:03;;;;;;;;;7.00;5.67;;;;;;;;5061319;28;48028;-75
2023/06/30 13:19:28;;;;;;;;;9.00;7.67;;;;;;;;5079590;28;45242;-74
2023/06/30 13:21:53;;;;;;;;;5.00;5.00;;;;;;;;5080056;28;45207;-74
2023/06/30 13:24:18;;;;;;;;;3.67;3.67;;;;;;;;5061620;28;47048;-74
2023/06/30 13:26:45;;;;;;;;;5.00;5.00;;;;;;;;5079346;28;45432;-74
2023/06/30 13:29:10;;;;;;;;;6.33;5.00;;;;;;;;5086536;27;45533;-74
2023/06/30 13:31:35;;;;;;;;;4.75;4.75;;;;;;;;5081838;27;45414;-73
2023/06/30 13:34:00;;;;;;;;;5.00;5.00;;;;;;;;5100202;27;45464;-72
2023/06/30 13:36:27;;;;;;;;;5.00;5.00;;;;;;;;5100079;27;45994;-74
2023/06/30 13:38:52;;;;;;;;;5.00;5.00;;;;;;;;5100254;27;45321;-73
2023/06/30 13:41:18;;;;;;;;;4.00;4.00;;;;;;;;5099879;27;45354;-72
2023/06/30 13:43:43;;;;;;;;;3.75;3.75;;;;;;;;5099215;27;45556;-74
2023/06/30 13:46:08;;;;;;;;;4.25;3.25;;;;;;;;5080910;27;48107;-73
2023/06/30 13:48:35;;;;;;;;;5.00;4.00;;;;;;;;5100000;27;45368;-74
2023/06/30 13:51:00;;;;;;;;;3.75;3.75;;;;;;;;5100288;27;45431;-74
2023/06/30 13:53:26;;;;;;;;;3.50;3.50;;;;;;;;5099919;27;45312;-74
2023/06/30 13:55:51;;;;;;;;;3.50;3.50;;;;;;;;5099841;27;46186;-73
2023/06/30 13:58:16;;;;;;;;;2.00;2.00;;;;;;;;5070949;27;45267;-74
2023/06/30 14:00:43;;;;;;;;;2.75;2.75;;;;;;;;5059087;28;45554;-74
2023/06/30 14:03:08;;;;;;;;;4.00;3.50;;;;;;;;5052080;28;46315;-75
2023/06/30 14:05:33;;;;;;;;;4.00;4.00;;;;;;;;5076060;28;46333;-75
2023/06/30 14:07:58;;;;;;;;;5.00;3.75;;;;;;;;5079038;27;45434;-75
2023/06/30 14:10:24;;;;;;;;;3.00;3.00;;;;;;;;5079313;28;45299;-75
2023/06/30 14:12:49;;;;;;;;;4.00;4.00;;;;;;;;5078888;28;45448;-76
2023/06/30 14:15:14;;;;;;;;;3.00;3.00;;;;;;;;5078775;28;46415;-75
2023/06/30 14:17:40;;;;;;;;;2.50;2.25;;;;;;;;5081835;28;45224;-75
2023/06/30 14:20:05;;;;;;;;;2.25;2.25;;;;;;;;5082897;28;45137;-75
2023/06/30 14:22:30;;;;;;;;;3.50;3.50;;;;;;;;5082493;28;45410;-75
2023/06/30 14:24:56;;;;;;;;;4.00;3.00;;;;;;;;5082630;28;46127;-75
2023/06/30 14:27:21;;;;;;;;;4.25;3.75;;;;;;;;5064408;28;45396;-75
2023/06/30 14:29:46;;;;;;;;;3.00;3.00;;;;;;;;5082396;28;45403;-74
2023/06/30 14:32:11;;;;;;;;;1.25;1.25;;;;;;;;5064024;28;45837;-75